Detroit Lakes, MN

1:39 AM CST on February 23, 2018 (GMT -0600)
Detroit Lakes

Weather History for KDTL - September, 2013

Change the Weather History Date:

Thursday, September 26, 2013

  Actual Average Record
Temperature  
Mean Temperature 66 °F -  
Max Temperature 77 °F 65 °F 84 °F (1974)
Min Temperature 55 °F 39 °F 17 °F (1965)
Cooling Degree Days 1    
Growing Degree Days 16 (Base 50)    
Moisture  
Dew Point 56 °F    
Average Humidity 69    
Maximum Humidity 88    
Minimum Humidity 50    
Precipitation  
Precipitation 0.00 in - - ()
Sea Level Pressure  
Sea Level Pressure 29.77 in    
Wind  
Wind Speed 16 mph (SSE)    
Max Wind Speed 25 mph    
Max Gust Speed 33 mph    
Visibility 10 miles    
Events      
Averages and records for this station are not official NWS values.
T = Trace of Precipitation, MM = Missing Value Source: NWS Daily Summary

Daily Weather History Graph

Daily Weather History Graph

Search for Another Location

Airport or City:

Trip Planner

Search our weather history database for the weather conditions in past years. The results will help you decide how hot, cold, wet, or windy it might be!

Date:

Astronomy

Sep. 26, 2013 Rise Set
Actual Time 7:16 AM CDT 7:12 PM CDT
Civil Twilight 6:45 AM CDT 7:42 PM CDT
Nautical Twilight 6:10 AM CDT 8:18 PM CDT
Astronomical Twilight 5:34 AM CDT 8:54 PM CDT
Moon 11:53 PM CDT (9/26) 2:27 PM CDT (9/26)
Length of Visible Light 12h 57m
Length of Day
11h 56m
Waning Gibbous, 54% of the Moon is Illuminated
Sep 26
Waning Gibbous
Sep 26
Last Quarter
Oct 4
New
Oct 11
First Quarter
Oct 18
Full

Hourly Weather History & Observations

Time (CDT) Temp. Dew Point Humidity Pressure Visibility Wind Dir Wind Speed Gust Speed Precip Events Conditions
12:15 AM 60.8 °F 51.8 °F 72% 29.83 in 10.0 mi SSE 13.8 mph 19.6 mph N/A   Clear
12:35 AM 60.8 °F 51.8 °F 72% 29.82 in 10.0 mi SSE 15.0 mph 21.9 mph N/A   Clear
12:55 AM 60.8 °F 51.8 °F 72% 29.82 in 10.0 mi SSE 15.0 mph 21.9 mph N/A   Clear
1:15 AM 60.8 °F 51.8 °F 72% 29.81 in 10.0 mi SE 17.3 mph 21.9 mph N/A   Clear
1:35 AM 60.8 °F 51.8 °F 72% 29.81 in 10.0 mi SE 15.0 mph 24.2 mph N/A   Clear
1:55 AM 60.8 °F 51.8 °F 72% 29.81 in 10.0 mi SE 16.1 mph 21.9 mph N/A   Clear
2:15 AM 59.0 °F 51.8 °F 77% 29.81 in 10.0 mi SE 13.8 mph - N/A   Clear
2:36 AM 59.0 °F 51.8 °F 77% 29.81 in 10.0 mi SE 13.8 mph 19.6 mph N/A   Clear
2:55 AM 59.0 °F 51.8 °F 77% 29.80 in 10.0 mi SSE 12.7 mph - N/A   Clear
3:15 AM 59.0 °F 51.8 °F 77% 29.80 in 10.0 mi SSE 16.1 mph - N/A   Clear
3:36 AM 59.0 °F 51.8 °F 77% 29.80 in 10.0 mi SSE 12.7 mph 19.6 mph N/A   Clear
3:55 AM 59.0 °F 51.8 °F 77% 29.80 in 10.0 mi SE 12.7 mph 20.7 mph N/A   Clear
4:15 AM 59.0 °F 51.8 °F 77% 29.79 in 10.0 mi SE 13.8 mph - N/A   Clear
4:36 AM 57.2 °F 51.8 °F 82% 29.79 in 10.0 mi SE 16.1 mph 21.9 mph N/A   Clear
4:55 AM 57.2 °F 51.8 °F 82% 29.79 in 10.0 mi SE 16.1 mph 20.7 mph N/A   Clear
5:15 AM 57.2 °F 51.8 °F 82% 29.78 in 10.0 mi SE 17.3 mph 21.9 mph N/A   Clear
5:36 AM 57.2 °F 51.8 °F 82% 29.78 in 10.0 mi SE 12.7 mph 23.0 mph N/A   Clear
5:55 AM 55.4 °F 51.8 °F 88% 29.78 in 10.0 mi SE 17.3 mph 24.2 mph N/A   Clear
6:15 AM 55.4 °F 51.8 °F 88% 29.77 in 10.0 mi SE 18.4 mph 23.0 mph N/A   Clear
6:35 AM 55.4 °F 51.8 °F 88% 29.77 in 10.0 mi SE 17.3 mph 21.9 mph N/A   Clear
6:55 AM 55.4 °F 51.8 °F 88% 29.76 in 10.0 mi SE 20.7 mph - N/A   Clear
7:15 AM 57.2 °F 51.8 °F 82% 29.76 in 10.0 mi SE 18.4 mph 24.2 mph N/A   Clear
7:35 AM 57.2 °F 51.8 °F 82% 29.76 in 10.0 mi SE 19.6 mph 26.5 mph N/A   Clear
7:55 AM 57.2 °F 51.8 °F 82% 29.77 in 10.0 mi SE 21.9 mph 25.3 mph N/A   Clear
8:15 AM 57.2 °F 51.8 °F 82% 29.77 in 10.0 mi SSE 17.3 mph 25.3 mph N/A   Clear
8:35 AM 57.2 °F 51.8 °F 82% 29.77 in 10.0 mi SSE 17.3 mph 25.3 mph N/A   Clear
8:55 AM 59.0 °F 53.6 °F 82% 29.77 in 10.0 mi SE 17.3 mph 25.3 mph N/A   Clear
9:15 AM 59.0 °F 53.6 °F 82% 29.77 in 10.0 mi SE 17.3 mph 21.9 mph N/A   Clear
9:35 AM 60.8 °F 53.6 °F 77% 29.76 in 10.0 mi SE 17.3 mph 23.0 mph N/A   Clear
9:55 AM 60.8 °F 55.4 °F 82% 29.77 in 10.0 mi SSE 15.0 mph 25.3 mph N/A   Clear
10:15 AM 64.4 °F 55.4 °F 73% 29.76 in 10.0 mi SSE 18.4 mph 25.3 mph N/A   Clear
10:35 AM 64.4 °F 55.4 °F 73% 29.75 in 10.0 mi SSE 20.7 mph 27.6 mph N/A   Clear
10:55 AM 68.0 °F 55.4 °F 64% 29.74 in 10.0 mi SSE 21.9 mph 31.1 mph N/A   Clear
11:15 AM 68.0 °F 55.4 °F 64% 29.74 in 10.0 mi SSE 25.3 mph 33.4 mph N/A   Clear
11:35 AM 69.8 °F 55.4 °F 60% 29.73 in 10.0 mi SSE 24.2 mph 31.1 mph N/A   Clear
11:55 AM 71.6 °F 55.4 °F 57% 29.74 in 10.0 mi SSE 23.0 mph 31.1 mph N/A   Clear
12:15 PM 71.6 °F 55.4 °F 57% 29.74 in 10.0 mi South 25.3 mph 32.2 mph N/A   Clear
12:35 PM 71.6 °F 57.2 °F 60% 29.74 in 10.0 mi South 20.7 mph 32.2 mph N/A   Clear
12:55 PM 73.4 °F 57.2 °F 57% 29.74 in 10.0 mi SSE 25.3 mph 32.2 mph N/A   Clear
1:15 PM 73.4 °F 57.2 °F 57% 29.74 in 10.0 mi SSE 21.9 mph 27.6 mph N/A   Clear
1:35 PM 73.4 °F 57.2 °F 57% 29.74 in 10.0 mi South 19.6 mph 26.5 mph N/A   Clear
1:55 PM 75.2 °F 57.2 °F 53% 29.74 in 10.0 mi South 17.3 mph 31.1 mph N/A   Clear
2:15 PM 75.2 °F 57.2 °F 53% 29.73 in 10.0 mi South 23.0 mph 27.6 mph N/A   Clear
2:35 PM 77.0 °F 59.0 °F 54% 29.74 in 10.0 mi South 16.1 mph 24.2 mph N/A   Clear
2:55 PM 77.0 °F 57.2 °F 50% 29.73 in 10.0 mi SSE 23.0 mph 28.8 mph N/A   Clear
3:15 PM 73.4 °F 57.2 °F 57% 29.74 in 10.0 mi South 19.6 mph 25.3 mph N/A   Scattered Clouds
3:35 PM 77.0 °F 59.0 °F 54% 29.73 in 10.0 mi South 18.4 mph 24.2 mph N/A   Scattered Clouds
3:55 PM 77.0 °F 59.0 °F 54% 29.73 in 10.0 mi South 23.0 mph 28.8 mph N/A   Scattered Clouds
4:15 PM 75.2 °F 59.0 °F 57% 29.73 in 10.0 mi South 18.4 mph 24.2 mph N/A   Scattered Clouds
4:35 PM 77.0 °F 59.0 °F 54% 29.73 in 10.0 mi South 21.9 mph - N/A   Clear
4:55 PM 77.0 °F 59.0 °F 54% 29.74 in 10.0 mi South 18.4 mph 24.2 mph N/A   Clear
5:15 PM 77.0 °F 59.0 °F 54% 29.74 in 10.0 mi South 18.4 mph 25.3 mph N/A   Clear
5:35 PM 77.0 °F 59.0 °F 54% 29.74 in 10.0 mi SSE 13.8 mph 19.6 mph N/A   Clear
5:55 PM 77.0 °F 59.0 °F 54% 29.75 in 10.0 mi SSE 12.7 mph - N/A   Clear
6:15 PM 75.2 °F 59.0 °F 57% 29.75 in 10.0 mi SSE 11.5 mph - N/A   Clear
6:35 PM 73.4 °F 59.0 °F 61% 29.75 in 10.0 mi SSE 12.7 mph 18.4 mph N/A   Clear
6:55 PM 73.4 °F 59.0 °F 61% 29.75 in 10.0 mi SSE 10.4 mph - N/A   Scattered Clouds
7:15 PM 73.4 °F 59.0 °F 61% 29.76 in 10.0 mi SE 9.2 mph - N/A   Scattered Clouds
7:35 PM 71.6 °F 59.0 °F 64% 29.76 in 10.0 mi SE 9.2 mph - N/A   Scattered Clouds
7:55 PM 71.6 °F 59.0 °F 64% 29.77 in 10.0 mi SE 9.2 mph - N/A   Scattered Clouds
8:15 PM 71.6 °F 59.0 °F 64% 29.77 in 10.0 mi SE 9.2 mph - N/A   Scattered Clouds
8:35 PM 71.6 °F 59.0 °F 64% 29.77 in 10.0 mi SE 9.2 mph - N/A   Scattered Clouds
8:55 PM 71.6 °F 59.0 °F 64% 29.77 in 10.0 mi SSE 12.7 mph 16.1 mph N/A   Scattered Clouds
9:15 PM 71.6 °F 59.0 °F 64% 29.78 in 10.0 mi SSE 10.4 mph - N/A   Clear
9:35 PM 71.6 °F 59.0 °F 64% 29.78 in 10.0 mi South 8.1 mph - N/A   Scattered Clouds
9:55 PM 71.6 °F 59.0 °F 64% 29.79 in 10.0 mi South 9.2 mph - N/A   Scattered Clouds
10:15 PM 71.6 °F 59.0 °F 64% 29.79 in 10.0 mi SSE 8.1 mph - N/A   Scattered Clouds
10:35 PM 69.8 °F 60.8 °F 73% 29.79 in 10.0 mi SSE 6.9 mph - N/A   Clear
10:55 PM 69.8 °F 59.0 °F 68% 29.79 in 10.0 mi SSE 6.9 mph - N/A   Clear
11:15 PM 69.8 °F 59.0 °F 68% 29.79 in 10.0 mi SSE 4.6 mph - N/A   Clear
11:35 PM 68.0 °F 60.8 °F 78% 29.79 in 10.0 mi SSE 5.8 mph - N/A   Clear
11:55 PM 69.8 °F 59.0 °F 68% 29.80 in 10.0 mi SSE 5.8 mph - N/A   Scattered Clouds